Terminal Aerodrome Forecast
Issued by NWS Wilmington, NC

Home | Current Version | Previous Version | Text Only | Print | Product List | Glossary On
Versions: 1 2 3 4 5 6 7 8 9 10 11 12 13 14 15 16
000
FTUS42 KILM 202300
TAFFLO
TAF
KFLO 202320Z 2100/2124 03012KT P6SM BKN040 BKN060
     FM211300 01010G18KT P6SM SCT050
     FM211600 35008KT P6SM SKC=

USA.gov is the U.S. government's official web portal to all federal, state and local government web resources and services.